Time;durP1;ratioP1;P1;durP2;ratioP2;P2;SDS_P1;SDS_P2;PMS_P1;PMS_P2;Temp;Humidity;BMP_temperature;BMP_pressure;BME280_temperature;BME280_humidity;BME280_pressure;Samples;Min_cycle;Max_cycle;Signal;HPM_P1;HPM_P2
2023/06/19 00:00:36;;;;;;;0.52;0.52;;;;;;;19.51;100.00;99737.00;6127952;23;20024;-91
2023/06/19 00:03:02;;;;;;;0.60;0.60;;;;;;;19.44;100.00;99731.84;6157384;23;20013;-91
2023/06/19 00:05:27;;;;;;;1.23;1.00;;;;;;;19.36;100.00;99730.78;6156430;23;20023;-91
2023/06/19 00:07:53;;;;;;;1.27;0.85;;;;;;;19.27;100.00;99716.16;6156177;23;20013;-91
2023/06/19 00:10:19;;;;;;;2.05;1.20;;;;;;;19.27;100.00;99727.41;6155976;23;20500;-91
2023/06/19 00:12:45;;;;;;;1.42;1.33;;;;;;;19.21;100.00;99718.91;6182057;23;20060;-91
2023/06/19 00:15:11;;;;;;;0.77;0.70;;;;;;;19.04;100.00;99687.16;6181085;23;20028;-90
2023/06/19 00:17:37;;;;;;;2.13;1.20;;;;;;;19.20;100.00;99723.03;6157081;23;20130;-92
2023/06/19 00:20:06;;;;;;;1.40;1.23;;;;;;;18.95;100.00;99685.34;6135324;23;20032;-91
2023/06/19 00:22:32;;;;;;;0.70;0.70;;;;;;;19.01;100.00;99705.03;6135600;23;20556;-91
2023/06/19 00:24:57;;;;;;;0.90;0.90;;;;;;;19.04;100.00;99704.03;6160170;23;20060;-92
2023/06/19 00:27:24;;;;;;;1.63;1.27;;;;;;;19.12;100.00;99715.56;6184102;23;20310;-91
2023/06/19 00:29:53;;;;;;;1.88;1.20;;;;;;;18.85;100.00;99691.63;6158442;23;20076;-90
2023/06/19 00:32:20;;;;;;;0.40;0.40;;;;;;;18.93;100.00;99703.94;6160239;23;20075;-91
2023/06/19 00:34:45;;;;;;;1.55;1.10;;;;;;;19.01;100.00;99705.03;6183187;23;20252;-90
2023/06/19 00:37:14;;;;;;;1.48;1.40;;;;;;;18.96;100.00;99698.13;6158845;23;20173;-91
2023/06/19 00:39:46;;;;;;;1.30;1.00;;;;;;;18.98;100.00;99708.84;6182973;23;20028;-90
2023/06/19 00:42:11;;;;;;;0.40;0.40;;;;;;;18.96;100.00;99717.03;6159611;23;20369;-90
2023/06/19 00:44:37;;;;;;;1.10;1.10;;;;;;;18.86;100.00;99710.03;6130559;23;20013;-90
2023/06/19 00:47:04;;;;;;;0.82;0.82;;;;;;;18.84;100.00;99712.59;6158239;23;20017;-91
2023/06/19 00:49:30;;;;;;;0.80;0.77;;;;;;;18.72;100.00;99699.75;6158441;23;20020;-90
2023/06/19 00:51:56;;;;;;;1.25;1.15;;;;;;;18.73;100.00;99702.03;6182456;23;20017;-91
2023/06/19 00:54:22;;;;;;;1.33;1.23;;;;;;;18.45;100.00;99662.50;6131457;23;20823;-90
2023/06/19 00:56:48;;;;;;;0.57;0.57;;;;;;;18.51;100.00;99685.03;6133837;23;20012;-91
2023/06/19 00:59:19;;;;;;;1.08;0.98;;;;;;;18.54;100.00;99701.66;6156108;23;20096;-91
2023/06/19 01:01:44;;;;;;;3.53;1.63;;;;;;;18.51;100.00;99699.84;6159666;23;20012;-92
2023/06/19 01:04:11;;;;;;;1.80;0.82;;;;;;;18.48;100.00;99700.81;6159066;23;20013;-90
2023/06/19 01:06:52;;;;;;;1.00;1.00;;;;;;;18.52;100.00;99703.44;6182604;23;20005;-90
2023/06/19 01:09:19;;;;;;;3.72;2.33;;;;;;;18.40;100.00;99688.50;6156385;23;20465;-91
2023/06/19 01:11:48;;;;;;;2.47;0.95;;;;;;;18.43;100.00;99707.19;6183111;23;20460;-91
2023/06/19 01:14:19;;;;;;;2.20;1.60;;;;;;;18.33;100.00;99697.38;6158576;23;20036;-91
2023/06/19 01:16:46;;;;;;;1.00;0.93;;;;;;;18.40;100.00;99708.16;6160597;23;20036;-91
2023/06/19 01:19:15;;;;;;;1.50;1.20;;;;;;;18.25;100.00;99685.06;6157971;23;20391;-91
2023/06/19 01:21:41;;;;;;;1.25;1.13;;;;;;;18.42;100.00;99707.66;6156548;23;20449;-90
2023/06/19 01:24:07;;;;;;;3.28;0.70;;;;;;;18.27;100.00;99685.34;6180902;23;20017;-91
2023/06/19 01:26:33;;;;;;;1.33;1.10;;;;;;;18.43;100.00;99709.22;6157616;23;20013;-90
2023/06/19 01:28:58;;;;;;;0.80;0.77;;;;;;;18.25;100.00;99689.91;6155702;23;20437;-92
2023/06/19 01:31:32;;;;;;;0.98;0.90;;;;;;;18.30;100.00;99717.28;6154583;23;20044;-89
2023/06/19 01:34:06;;;;;;;5.45;1.25;;;;;;;18.14;100.00;99696.22;6132258;23;20013;-90
2023/06/19 01:36:31;;;;;;;;;;;;;;;18.16;100.00;99710.50;6157205;23;20560;-90
2023/06/19 01:38:59;;;;;;;1.30;1.20;;;;;;;17.98;100.00;99682.81;6155759;23;19909;-91
2023/06/19 01:41:25;;;;;;;1.08;1.00;;;;;;;17.96;100.00;99683.28;6180305;23;20029;-91
2023/06/19 01:43:52;;;;;;;1.00;0.68;;;;;;;17.90;100.00;99685.28;6159838;23;20055;-92
2023/06/19 01:46:18;;;;;;;1.05;0.68;;;;;;;18.07;100.00;99713.50;6134070;23;20087;-91
2023/06/19 01:48:44;;;;;;;1.35;1.25;;;;;;;17.88;100.00;99675.81;6182132;23;20024;-90
2023/06/19 01:51:12;;;;;;;0.77;0.75;;;;;;;17.99;100.00;99685.13;6180712;23;20009;-91
2023/06/19 01:53:38;;;;;;;1.08;0.80;;;;;;;17.90;100.00;99676.09;6136485;23;20013;-91
2023/06/19 01:56:04;;;;;;;0.90;0.90;;;;;;;18.12;100.00;99704.34;6136090;23;20009;-91
2023/06/19 01:58:30;;;;;;;2.22;1.13;;;;;;;18.11;100.00;99698.00;6136420;23;20088;-90
2023/06/19 04:11:52;;;;;;;1.17;1.08;;;;;;;17.21;100.00;99672.25;6221583;23;20032;-94
2023/06/19 04:14:18;;;;;;;0.60;0.50;;;;;;;17.38;100.00;99692.88;6145714;23;20017;-93
2023/06/19 04:16:44;;;;;;;2.40;1.63;;;;;;;17.54;100.00;99723.13;6142963;23;20390;-94
2023/06/19 04:19:32;;;;;;;1.60;0.70;;;;;;;17.36;100.00;99675.75;6177014;23;20009;-96
2023/06/19 04:22:35;;;;;;;0.82;0.82;;;;;;;17.57;100.00;99690.50;6183960;23;20045;-95
2023/06/19 04:25:01;;;;;;;;;;;;;;;17.69;100.00;99718.22;6203351;23;20021;-95
2023/06/19 04:27:28;;;;;;;2.00;1.65;;;;;;;17.31;100.00;99682.06;6177235;23;19911;-95
2023/06/19 04:30:00;;;;;;;0.95;0.82;;;;;;;17.49;100.00;99704.19;6170698;23;20007;-94
2023/06/19 04:32:26;;;;;;;1.23;1.10;;;;;;;17.45;100.00;99686.81;6175401;23;20011;-94
2023/06/19 04:34:51;;;;;;;1.10;0.82;;;;;;;17.61;100.00;99705.91;6171682;23;20012;-94
2023/06/19 04:37:40;;;;;;;0.80;0.80;;;;;;;17.67;100.00;99694.75;6175690;23;20517;-94
2023/06/19 04:40:10;;;;;;;3.08;1.85;;;;;;;17.87;100.00;99710.75;6174857;23;20465;-95
2023/06/19 04:42:38;;;;;;;1.15;1.05;;;;;;;17.65;100.00;99672.78;6175777;23;20016;-94
2023/06/19 04:45:07;;;;;;;1.30;1.20;;;;;;;17.92;100.00;99702.38;6151857;23;20068;-95
2023/06/19 04:47:34;;;;;;;1.52;1.00;;;;;;;17.99;100.00;99723.63;6177185;23;20017;-93
2023/06/19 04:50:02;;;;;;;2.22;1.60;;;;;;;17.80;100.00;99695.13;6194595;23;20036;-94
2023/06/19 04:52:32;;;;;;;0.50;0.50;;;;;;;18.04;100.00;99734.13;6177433;23;20079;-93
2023/06/19 04:55:01;;;;;;;1.60;1.27;;;;;;;17.89;100.00;99702.59;6177721;23;20009;-92
2023/06/19 04:57:26;;;;;;;1.88;1.42;;;;;;;17.83;100.00;99693.38;6194123;23;20063;-95
2023/06/19 04:59:57;;;;;;;1.80;1.40;;;;;;;18.05;100.00;99741.28;6198872;23;20056;-94
2023/06/19 05:02:26;;;;;;;1.92;1.75;;;;;;;18.00;100.00;99699.91;6185160;23;20017;-93
2023/06/19 05:04:52;;;;;;;0.73;0.73;;;;;;;18.11;100.00;99716.88;6217859;23;20012;-93
2023/06/19 05:07:20;;;;;;;1.33;1.23;;;;;;;18.26;100.00;99737.16;6147405;23;20005;-96
2023/06/19 05:09:45;;;;;;;0.68;0.68;;;;;;;18.17;100.00;99720.47;6154881;23;20021;-93
2023/06/19 05:12:11;;;;;;;0.82;0.73;;;;;;;18.12;100.00;99718.38;6193475;23;20013;-94
2023/06/19 05:14:37;;;;;;;1.90;1.38;;;;;;;18.27;100.00;99733.09;6149253;23;20005;-92
2023/06/19 05:17:09;;;;;;;1.40;0.88;;;;;;;18.36;100.00;99743.38;6178379;23;20009;-95
2023/06/19 05:19:41;;;;;;;0.40;0.40;;;;;;;18.39;100.00;99720.69;6141147;23;20008;-94
2023/06/19 05:22:06;;;;;;;1.52;1.15;;;;;;;18.48;100.00;99728.16;6151904;23;20005;-95
2023/06/19 05:24:35;;;;;;;2.58;1.58;;;;;;;18.58;100.00;99730.31;6178352;23;20033;-94
2023/06/19 05:27:00;;;;;;;2.15;1.77;;;;;;;18.77;100.00;99736.31;6180421;23;20012;-93
2023/06/19 05:29:26;;;;;;;1.45;1.17;;;;;;;18.81;100.00;99733.25;6139623;23;20008;-94
2023/06/19 05:31:52;;;;;;;1.80;1.33;;;;;;;18.81;100.00;99727.63;6152357;23;19999;-95
2023/06/19 05:34:22;;;;;;;2.55;1.85;;;;;;;19.15;100.00;99760.31;6196182;23;20024;-95
2023/06/19 05:36:48;;;;;;;1.48;1.25;;;;;;;19.10;100.00;99718.88;6135966;23;20038;-94
2023/06/19 05:39:18;;;;;;;1.40;1.30;;;;;;;19.28;100.00;99726.91;6169094;23;20454;-94
2023/06/19 05:41:45;;;;;;;4.05;1.45;;;;;;;19.48;100.00;99743.63;6167686;23;20431;-94
2023/06/19 05:44:15;;;;;;;0.85;0.82;;;;;;;19.48;100.00;99743.63;6140649;23;20091;-94
2023/06/19 05:46:47;;;;;;;4.53;1.20;;;;;;;19.51;100.00;99714.50;6166792;23;20112;-93
2023/06/19 05:49:23;;;;;;;2.78;2.22;;;;;;;19.70;100.00;99728.84;6174214;23;20020;-94
2023/06/19 05:51:49;;;;;;;1.75;1.10;;;;;;;20.03;100.00;99747.88;6194096;23;20047;-95
2023/06/19 05:54:15;;;;;;;5.88;2.35;;;;;;;20.32;100.00;99750.25;6165855;23;20431;-94
2023/06/19 05:56:41;;;;;;;1.35;1.15;;;;;;;20.63;100.00;99765.38;6163195;23;20430;-92
2023/06/19 05:59:06;;;;;;;1.10;1.00;;;;;;;20.46;100.00;99723.13;6161956;23;20047;-93
2023/06/19 06:01:32;;;;;;;2.58;1.40;;;;;;;20.65;100.00;99740.28;6137844;23;20016;-93
2023/06/19 06:03:57;;;;;;;1.00;0.63;;;;;;;20.71;100.00;99743.84;6136792;23;20809;-89
2023/06/19 06:06:23;;;;;;;1.02;0.90;;;;;;;20.47;100.00;99736.69;6183083;23;20016;-91
2023/06/19 06:08:52;;;;;;;1.02;0.77;;;;;;;20.67;100.00;99765.88;6210582;23;20059;-92
2023/06/19 06:11:18;;;;;;;1.27;1.10;;;;;;;20.64;100.00;99733.09;6152776;23;20520;-90
2023/06/19 06:13:43;;;;;;;1.60;0.85;;;;;;;20.94;100.00;99746.13;6178113;23;20021;-89
2023/06/19 06:16:09;;;;;;;0.93;0.75;;;;;;;21.19;100.00;99737.91;6179800;23;20013;-89
2023/06/19 06:18:35;;;;;;;2.03;1.15;;;;;;;21.59;100.00;99770.34;6154483;23;20017;-89
2023/06/19 06:21:00;;;;;;;0.80;0.80;;;;;;;21.77;100.00;99742.25;6179918;23;20020;-89
2023/06/19 06:23:26;;;;;;;2.50;2.13;;;;;;;22.24;100.00;99768.44;6154150;23;20090;-90
2023/06/19 06:25:51;;;;;;;1.55;1.15;;;;;;;22.41;98.79;99753.41;6178830;23;20005;-90
2023/06/19 06:28:17;;;;;;;1.83;1.23;;;;;;;22.79;96.82;99786.31;6180354;23;20467;-89
2023/06/19 06:30:43;;;;;;;1.02;0.80;;;;;;;22.84;94.31;99762.88;6153998;23;20009;-91
2023/06/19 06:33:09;;;;;;;2.92;1.88;;;;;;;22.97;93.13;99765.06;6129369;23;20096;-89
2023/06/19 06:35:35;;;;;;;1.42;1.33;;;;;;;23.11;90.21;99775.19;6176189;23;20040;-89
2023/06/19 06:38:02;;;;;;;1.73;1.35;;;;;;;23.34;89.24;99778.53;6180315;23;20088;-90
2023/06/19 06:40:27;;;;;;;1.55;1.35;;;;;;;23.38;87.09;99765.63;6179449;23;20024;-89
2023/06/19 06:42:53;;;;;;;0.80;0.55;;;;;;;23.41;85.63;99761.75;6184802;23;20009;-89
2023/06/19 06:45:19;;;;;;;1.23;0.98;;;;;;;23.20;86.48;99781.28;6163309;23;20029;-89
2023/06/19 06:47:45;;;;;;;2.63;1.33;;;;;;;23.45;85.98;99772.81;6187249;23;20012;-89
2023/06/19 06:50:10;;;;;;;0.93;0.57;;;;;;;23.64;82.48;99776.44;6134072;23;20025;-90
2023/06/19 06:52:36;;;;;;;2.58;1.95;;;;;;;23.73;77.42;99773.22;6154852;23;20013;-90
2023/06/19 06:55:02;;;;;;;2.05;1.02;;;;;;;23.85;77.88;99785.19;6153672;23;20079;-89
2023/06/19 06:57:27;;;;;;;1.42;1.33;;;;;;;23.95;78.98;99763.66;6180455;23;20048;-90
2023/06/19 06:59:53;;;;;;;1.58;1.48;;;;;;;24.27;78.57;99770.16;6178130;23;20012;-90
2023/06/19 07:02:18;;;;;;;1.13;1.02;;;;;;;24.48;75.90;99767.53;6178927;23;20012;-90
2023/06/19 07:04:44;;;;;;;0.75;0.75;;;;;;;24.71;74.42;99777.19;6179645;23;20008;-90
2023/06/19 07:07:09;;;;;;;1.65;1.27;;;;;;;24.83;73.76;99774.94;6155180;23;20004;-89
2023/06/19 07:09:35;;;;;;;1.27;1.17;;;;;;;25.00;74.60;99779.03;6179364;23;20021;-89
2023/06/19 07:12:04;;;;;;;1.27;1.17;;;;;;;25.23;73.01;99790.00;6210452;23;20032;-89
2023/06/19 07:14:30;;;;;;;0.95;0.93;;;;;;;25.46;72.42;99785.41;6186159;23;20016;-89
2023/06/19 07:16:55;;;;;;;3.00;1.73;;;;;;;25.48;69.70;99766.50;6160949;23;20013;-90
2023/06/19 07:19:21;;;;;;;4.20;1.70;;;;;;;25.62;68.13;99780.72;6211516;23;20016;-88
2023/06/19 07:21:46;;;;;;;1.92;1.75;;;;;;;25.40;68.09;99767.69;6161238;23;20443;-90
2023/06/19 07:24:12;;;;;;;1.17;1.05;;;;;;;25.21;67.57;99758.53;6160318;23;20387;-89
2023/06/19 07:26:37;;;;;;;0.60;0.60;;;;;;;25.20;68.66;99779.69;6185923;23;20495;-91
2023/06/19 07:29:05;;;;;;;2.53;1.75;;;;;;;25.11;69.66;99765.97;6186391;23;20024;-90
2023/06/19 07:31:31;;;;;;;2.38;1.90;;;;;;;25.30;69.14;99766.63;6185920;23;20070;-89
2023/06/19 07:33:56;;;;;;;1.05;1.00;;;;;;;25.57;69.92;99756.03;6186623;23;20009;-89
2023/06/19 07:36:22;;;;;;;1.55;1.20;;;;;;;26.04;65.26;99770.28;6135379;23;20020;-89
2023/06/19 07:38:47;;;;;;;1.80;1.23;;;;;;;25.76;67.27;99740.38;6212288;23;20086;-91
2023/06/19 07:41:13;;;;;;;1.38;1.27;;;;;;;26.06;65.55;99759.88;6211939;23;20058;-90
2023/06/19 07:43:41;;;;;;;0.40;0.40;;;;;;;26.19;65.82;99739.97;6212500;23;20059;-90
2023/06/19 07:46:06;;;;;;;1.83;1.25;;;;;;;26.49;65.23;99753.69;6159988;23;20075;-90
2023/06/19 07:48:32;;;;;;;1.05;0.95;;;;;;;27.05;57.75;99769.41;6212427;23;20004;-90
2023/06/19 07:50:58;;;;;;;1.20;1.08;;;;;;;26.97;54.32;99768.59;6183740;23;20339;-90
2023/06/19 07:53:23;;;;;;;1.02;0.70;;;;;;;26.68;56.95;99753.50;6183288;23;20086;-90
2023/06/19 07:55:51;;;;;;;2.08;1.88;;;;;;;26.94;53.22;99747.66;6183641;23;20023;-91
2023/06/19 07:58:18;;;;;;;0.65;0.65;;;;;;;26.92;55.26;99732.47;6159185;23;20024;-90
2023/06/19 08:00:43;;;;;;;0.60;0.60;;;;;;;27.47;55.76;99776.53;6209011;23;20012;-87
2023/06/19 08:03:09;;;;;;;2.22;2.03;;;;;;;27.52;50.97;99755.69;6159884;23;20409;-90
2023/06/19 08:05:34;;;;;;;1.00;0.93;;;;;;;27.54;48.35;99753.00;6210904;23;20017;-90
2023/06/19 08:08:03;;;;;;;1.77;1.63;;;;;;;27.44;49.77;99754.84;6211774;23;20035;-90
2023/06/19 08:10:34;;;;;;;1.50;1.40;;;;;;;27.28;49.84;99719.81;6184559;23;20012;-90
2023/06/19 08:12:59;;;;;;;0.73;0.73;;;;;;;27.86;50.19;99768.94;6129482;23;20099;-90
2023/06/19 08:15:25;;;;;;;2.00;1.17;;;;;;;27.79;50.75;99768.34;6158700;23;20200;-90
2023/06/19 08:17:51;;;;;;;0.75;0.75;;;;;;;27.61;52.07;99740.16;6135834;23;20350;-91
2023/06/19 08:20:17;;;;;;;1.23;1.13;;;;;;;27.84;49.62;99763.78;6158784;23;20024;-90
2023/06/19 08:22:42;;;;;;;0.75;0.73;;;;;;;27.79;49.65;99751.25;6159750;23;20039;-89
2023/06/19 08:25:08;;;;;;;1.23;1.10;;;;;;;27.68;48.29;99740.19;6160003;23;20050;-90
2023/06/19 08:27:34;;;;;;;0.63;0.50;;;;;;;28.21;49.96;99762.44;6160147;23;20427;-91
2023/06/19 08:29:59;;;;;;;0.93;0.90;;;;;;;28.46;48.33;99772.00;6158558;23;20473;-90
2023/06/19 08:32:25;;;;;;;1.35;1.13;;;;;;;27.82;47.39;99750.09;6184900;23;20009;-90
2023/06/19 08:34:51;;;;;;;1.13;0.88;;;;;;;27.53;48.49;99757.22;6210015;23;20008;-89
2023/06/19 08:37:18;;;;;;;2.13;1.42;;;;;;;28.08;47.85;99776.81;6184957;23;20084;-89
2023/06/19 08:39:43;;;;;;;0.85;0.55;;;;;;;28.30;46.12;99764.75;6185971;23;20439;-90
2023/06/19 08:42:09;;;;;;;1.98;1.42;;;;;;;28.49;45.64;99775.81;6210398;23;20023;-90
2023/06/19 08:44:35;;;;;;;1.50;1.40;;;;;;;28.57;45.30;99754.50;6132929;23;20012;-89
2023/06/19 08:47:05;;;;;;;1.00;1.00;;;;;;;29.03;45.25;99765.97;6184328;23;20035;-89
2023/06/19 08:49:35;;;;;;;0.70;0.70;;;;;;;29.26;44.47;99769.53;6157911;23;20090;-89
2023/06/19 08:52:07;;;;;;;0.77;0.75;;;;;;;28.93;45.09;99767.88;6184254;23;20012;-89
2023/06/19 08:54:33;;;;;;;2.13;1.92;;;;;;;28.73;46.20;99750.38;6210419;23;20013;-90
2023/06/19 08:57:02;;;;;;;0.95;0.90;;;;;;;28.85;46.07;99767.09;6158256;23;20039;-90
2023/06/19 08:59:31;;;;;;;1.25;1.15;;;;;;;28.77;47.76;99747.13;6209791;23;20017;-90
2023/06/19 09:01:57;;;;;;;1.35;1.25;;;;;;;29.08;46.83;99748.63;6159942;23;20084;-90
2023/06/19 09:04:30;;;;;;;2.25;1.13;;;;;;;29.20;45.42;99734.69;6136716;23;20000;-90
2023/06/19 09:07:03;;;;;;;1.95;1.45;;;;;;;29.63;43.15;99765.88;6159657;23;20175;-90
2023/06/19 09:09:44;;;;;;;1.55;1.35;;;;;;;29.92;42.54;99759.88;6183485;23;20028;-88
2023/06/19 09:12:13;;;;;;;1.83;1.38;;;;;;;29.53;43.08;99750.66;6183766;23;20017;-91
2023/06/19 09:14:41;;;;;;;1.40;1.30;;;;;;;30.06;42.17;99759.03;6132920;23;20020;-90
2023/06/19 09:17:11;;;;;;;1.63;1.52;;;;;;;30.14;40.60;99738.97;6159016;23;20350;-90
2023/06/19 09:19:36;;;;;;;1.35;1.05;;;;;;;30.57;40.37;99754.94;6182803;23;20427;-91
2023/06/19 09:22:08;;;;;;;1.90;0.90;;;;;;;30.53;39.50;99760.31;6183028;23;20012;-89
2023/06/19 09:24:40;;;;;;;1.05;0.82;;;;;;;30.66;38.57;99753.53;6133718;23;20585;-90
2023/06/19 09:27:19;;;;;;;1.33;1.23;;;;;;;30.42;39.78;99747.19;6184428;23;20328;-90
2023/06/19 09:29:49;;;;;;;0.60;0.60;;;;;;;30.03;40.77;99756.56;6182573;23;20019;-90
2023/06/19 09:32:18;;;;;;;0.55;0.55;;;;;;;30.09;40.47;99751.38;6183720;23;20040;-90
2023/06/19 09:34:46;;;;;;;2.00;1.58;;;;;;;29.88;39.01;99753.81;6134738;23;20139;-90
2023/06/19 09:37:12;;;;;;;2.05;1.40;;;;;;;29.95;40.20;99753.75;6208449;23;20017;-90
2023/06/19 09:39:38;;;;;;;1.17;0.95;;;;;;;29.87;40.42;99752.28;6158408;23;20019;-90
2023/06/19 09:42:06;;;;;;;0.73;0.73;;;;;;;30.09;41.31;99749.28;6184060;23;20005;-90
2023/06/19 09:44:36;;;;;;;1.67;0.90;;;;;;;30.47;40.08;99749.09;6157369;23;20021;-89
2023/06/19 09:47:05;;;;;;;2.25;1.83;;;;;;;30.90;38.99;99744.16;6185585;23;20024;-89
2023/06/19 09:49:32;;;;;;;0.80;0.70;;;;;;;30.99;37.76;99749.25;6159552;23;20031;-90
2023/06/19 09:51:57;;;;;;;0.93;0.93;;;;;;;31.25;37.97;99757.25;6212100;23;20080;-90
2023/06/19 09:54:24;;;;;;;1.45;1.23;;;;;;;31.38;38.59;99759.03;6159962;23;20087;-90
2023/06/19 09:56:51;;;;;;;2.13;1.20;;;;;;;31.64;37.34;99763.34;6184604;23;20316;-91
2023/06/19 09:59:18;;;;;;;1.25;1.15;;;;;;;31.80;36.86;99758.94;6158489;23;20013;-90
2023/06/19 10:01:45;;;;;;;0.77;0.77;;;;;;;31.93;37.43;99756.47;6184480;23;20349;-90
2023/06/19 10:04:13;;;;;;;1.52;1.42;;;;;;;31.61;36.75;99770.25;6159396;23;20062;-90
2023/06/19 10:06:46;;;;;;;1.70;1.60;;;;;;;31.75;36.41;99771.41;6159916;23;20020;-90
2023/06/19 10:09:11;;;;;;;1.58;1.45;;;;;;;31.38;36.87;99759.75;6208519;23;20004;-91
2023/06/19 10:11:47;;;;;;;1.50;1.40;;;;;;;31.21;37.46;99759.75;6208657;23;20099;-90
2023/06/19 10:14:13;;;;;;;2.58;1.23;;;;;;;31.19;38.28;99759.56;6155961;23;20017;-90
2023/06/19 10:16:40;;;;;;;1.83;1.13;;;;;;;30.90;38.33;99761.34;6158636;23;20016;-91
2023/06/19 10:19:17;;;;;;;4.00;1.35;;;;;;;31.07;38.57;99747.09;6207261;23;20446;-90
2023/06/19 10:21:53;;;;;;;1.15;1.00;;;;;;;31.41;37.88;99758.59;6183002;23;20013;-91
2023/06/19 10:24:19;;;;;;;1.17;1.08;;;;;;;31.12;37.25;99751.81;6158892;23;20017;-89
2023/06/19 10:27:05;;;;;;;2.35;1.13;;;;;;;31.04;38.14;99748.28;6210644;23;20012;-89
2023/06/19 10:29:41;;;;;;;2.00;1.77;;;;;;;31.44;39.25;99753.78;6181775;23;20438;-89
2023/06/19 10:32:06;;;;;;;0.90;0.90;;;;;;;31.64;36.88;99761.22;6133849;23;20024;-90
2023/06/19 10:34:36;;;;;;;2.47;1.10;;;;;;;31.59;36.94;99733.56;6158101;23;20008;-90
2023/06/19 10:37:02;;;;;;;1.25;1.15;;;;;;;31.69;37.38;99748.75;6159558;23;20016;-90
2023/06/19 10:39:27;;;;;;;1.52;1.38;;;;;;;31.69;37.98;99730.78;6183858;23;20118;-91
2023/06/19 10:41:53;;;;;;;1.60;1.50;;;;;;;32.12;37.19;99752.22;6157409;23;20012;-90
2023/06/19 10:44:18;;;;;;;1.55;1.15;;;;;;;32.13;36.88;99743.03;6155774;23;20311;-90
2023/06/19 10:46:44;;;;;;;1.17;0.95;;;;;;;32.61;36.08;99762.63;6133596;23;20415;-91
2023/06/19 10:49:11;;;;;;;1.23;0.90;;;;;;;32.48;36.14;99740.78;6156977;23;20059;-90
2023/06/19 10:51:38;;;;;;;1.98;1.15;;;;;;;32.77;36.05;99763.91;6156803;23;20016;-91
2023/06/19 10:54:04;;;;;;;0.95;0.90;;;;;;;32.82;35.96;99762.88;6181701;23;20019;-90
2023/06/19 10:56:29;;;;;;;1.33;1.23;;;;;;;32.62;36.18;99741.19;6156249;23;20016;-90
2023/06/19 10:59:05;;;;;;;0.52;0.52;;;;;;;32.58;35.37;99755.19;6180209;23;20012;-90
2023/06/19 11:01:42;;;;;;;1.20;1.10;;;;;;;32.83;35.82;99750.78;6180718;23;20040;-90
2023/06/19 11:04:09;;;;;;;0.85;0.82;;;;;;;33.25;34.83;99744.69;6180357;23;20058;-90
2023/06/19 11:06:37;;;;;;;1.73;1.08;;;;;;;33.29;35.95;99765.13;6206559;23;20047;-90
2023/06/19 11:09:04;;;;;;;0.75;0.75;;;;;;;33.49;36.30;99739.25;6206080;23;20110;-89
2023/06/19 11:11:45;;;;;;;1.27;1.17;;;;;;;33.55;35.85;99762.72;6182316;23;20236;-90
2023/06/19 11:14:15;;;;;;;1.88;1.73;;;;;;;33.56;34.99;99756.38;6205373;23;20494;-90
2023/06/19 11:16:46;;;;;;;1.30;0.93;;;;;;;33.01;35.09;99750.66;6181294;23;20087;-90
2023/06/19 11:19:19;;;;;;;0.85;0.85;;;;;;;33.20;36.26;99739.97;6179690;23;20345;-91
2023/06/19 11:21:48;;;;;;;1.20;1.15;;;;;;;33.31;35.18;99749.41;6156759;23;20184;-90
2023/06/19 11:24:14;;;;;;;0.75;0.75;;;;;;;32.63;36.24;99734.09;6206054;23;20072;-89
2023/06/19 11:26:51;;;;;;;1.77;1.20;;;;;;;33.21;36.22;99730.00;6181480;23;20012;-90
2023/06/19 11:29:20;;;;;;;0.82;0.80;;;;;;;33.49;35.44;99730.63;6179758;23;20071;-89
2023/06/19 11:31:47;;;;;;;1.58;1.48;;;;;;;33.56;34.72;99735.50;6181405;23;20084;-90
2023/06/19 11:34:13;;;;;;;1.23;0.93;;;;;;;33.61;35.84;99748.78;6155897;23;20388;-90
2023/06/19 11:36:41;;;;;;;1.50;1.30;;;;;;;33.32;34.97;99743.06;6205899;23;20095;-91
2023/06/19 11:39:15;;;;;;;1.70;1.60;;;;;;;32.80;36.06;99754.06;6157385;23;20435;-90
2023/06/19 11:41:43;;;;;;;0.95;0.85;;;;;;;32.97;36.23;99750.34;6131882;23;20481;-90
2023/06/19 11:44:10;;;;;;;1.65;1.55;;;;;;;32.74;36.35;99751.50;6155108;23;20207;-90
2023/06/19 11:46:36;;;;;;;1.52;1.25;;;;;;;32.86;35.86;99728.72;6157100;23;20008;-90
2023/06/19 11:49:12;;;;;;;0.70;0.70;;;;;;;33.16;36.25;99751.16;6183300;23;20032;-91
2023/06/19 11:51:38;;;;;;;2.42;1.35;;;;;;;33.35;35.31;99743.94;6182626;23;20048;-90
2023/06/19 11:54:06;;;;;;;1.30;1.20;;;;;;;33.32;35.74;99745.16;6182612;23;20447;-90
2023/06/19 11:56:31;;;;;;;1.85;1.33;;;;;;;33.63;35.30;99728.81;6208716;23;20454;-90
2023/06/19 11:58:57;;;;;;;1.20;1.10;;;;;;;33.82;34.26;99716.56;6210237;23;20012;-90
2023/06/19 12:01:22;;;;;;;0.68;0.68;;;;;;;34.03;34.68;99714.56;6183977;23;20009;-90
2023/06/19 12:03:48;;;;;;;0.98;0.90;;;;;;;33.55;34.05;99716.72;6184836;23;20023;-91
2023/06/19 12:06:14;;;;;;;1.77;1.23;;;;;;;33.85;36.09;99733.34;6184188;23;20096;-90
2023/06/19 12:08:39;;;;;;;2.45;1.10;;;;;;;33.69;35.57;99720.66;6160818;23;20435;-90
2023/06/19 12:11:08;;;;;;;1.30;1.00;;;;;;;33.88;35.32;99737.91;6210993;23;20284;-91
2023/06/19 12:13:33;;;;;;;1.50;1.05;;;;;;;34.01;34.72;99740.28;6160194;23;20016;-90
2023/06/19 12:15:59;;;;;;;1.00;0.95;;;;;;;33.81;34.64;99732.31;6184020;23;20019;-92
2023/06/19 12:18:24;;;;;;;1.08;1.00;;;;;;;33.58;34.66;99732.75;6134640;23;20012;-90
2023/06/19 12:20:50;;;;;;;0.85;0.85;;;;;;;33.65;35.74;99717.47;6158578;23;20021;-90
2023/06/19 12:23:15;;;;;;;1.63;1.52;;;;;;;33.84;36.36;99708.84;6160232;23;20028;-91
2023/06/19 12:25:41;;;;;;;1.27;1.17;;;;;;;33.99;34.75;99708.50;6159928;23;20008;-90
2023/06/19 12:28:08;;;;;;;1.02;1.02;;;;;;;33.90;34.93;99694.88;6158896;23;20008;-90
2023/06/19 12:30:34;;;;;;;2.00;1.58;;;;;;;33.68;34.75;99724.91;6159115;23;20103;-90
2023/06/19 12:32:59;;;;;;;1.15;1.05;;;;;;;33.69;34.43;99697.66;6159577;23;20101;-90
2023/06/19 12:35:25;;;;;;;2.08;1.33;;;;;;;33.29;35.12;99701.88;6183366;23;20366;-90
2023/06/19 12:37:52;;;;;;;1.95;1.58;;;;;;;33.63;34.96;99711.56;6160458;23;20021;-91
2023/06/19 12:40:18;;;;;;;1.17;1.08;;;;;;;33.61;33.62;99692.03;6158758;23;20015;-90
2023/06/19 12:42:43;;;;;;;1.15;1.13;;;;;;;33.90;34.01;99708.50;6158721;23;20431;-90
2023/06/19 12:45:15;;;;;;;1.50;1.40;;;;;;;33.86;33.62;99705.34;6185737;23;20015;-88
2023/06/19 12:47:41;;;;;;;1.15;0.93;;;;;;;33.83;34.51;99701.56;6161213;23;20345;-89
2023/06/19 12:50:07;;;;;;;1.00;0.98;;;;;;;33.69;33.97;99703.41;6158233;23;20076;-88
2023/06/19 12:52:32;;;;;;;1.60;1.42;;;;;;;33.45;34.47;99702.31;6159746;23;20027;-88
2023/06/19 12:55:00;;;;;;;1.17;0.98;;;;;;;33.26;35.05;99719.59;6184173;23;20020;-88
2023/06/19 12:57:26;;;;;;;0.88;0.75;;;;;;;33.28;35.19;99679.50;6184282;23;20430;-90
2023/06/19 12:59:52;;;;;;;1.02;1.00;;;;;;;33.43;35.13;99681.31;6134038;23;20031;-90
2023/06/19 13:02:17;;;;;;;4.43;2.13;;;;;;;33.51;35.38;99693.41;6183860;23;20039;-90
2023/06/19 13:04:43;;;;;;;1.20;1.00;;;;;;;33.74;35.71;99671.47;6182415;23;20570;-89
2023/06/19 13:07:08;;;;;;;1.73;1.60;;;;;;;34.07;33.79;99697.56;6133482;23;20578;-91
2023/06/19 13:09:35;;;;;;;0.80;0.80;;;;;;;33.88;34.54;99674.63;6183915;23;20008;-90
2023/06/19 13:12:02;;;;;;;1.00;0.85;;;;;;;33.74;35.28;99688.72;6183234;23;20020;-89
2023/06/19 13:14:27;;;;;;;1.80;1.40;;;;;;;33.91;34.53;99696.41;6158374;23;20020;-91
2023/06/19 13:16:53;;;;;;;1.20;1.10;;;;;;;34.37;35.28;99683.88;6183975;23;20027;-91
2023/06/19 13:19:19;;;;;;;2.25;1.67;;;;;;;34.27;33.78;99686.03;6133747;23;20035;-89
2023/06/19 13:21:44;;;;;;;0.80;0.80;;;;;;;34.22;34.12;99687.84;6158814;23;20317;-90
2023/06/19 13:24:10;;;;;;;1.42;1.30;;;;;;;34.35;34.53;99686.59;6184130;23;20009;-89
2023/06/19 13:26:36;;;;;;;1.02;1.00;;;;;;;34.27;34.48;99680.25;6158515;23;20039;-90
2023/06/19 13:29:02;;;;;;;1.40;1.30;;;;;;;34.14;33.00;99667.09;6158645;23;20034;-91
2023/06/19 13:31:30;;;;;;;1.38;1.00;;;;;;;34.23;33.23;99674.22;6158859;23;20021;-91
2023/06/19 13:33:59;;;;;;;2.13;1.38;;;;;;;34.46;33.62;99686.69;6184595;23;20009;-90
2023/06/19 13:36:26;;;;;;;0.80;0.80;;;;;;;34.12;33.84;99696.50;6183474;23;20001;-90
2023/06/19 13:38:54;;;;;;;1.55;1.35;;;;;;;33.54;34.48;99680.69;6144376;23;20012;-90
2023/06/19 13:41:23;;;;;;;3.75;1.58;;;;;;;33.83;35.13;99695.81;6144145;23;20490;-90
2023/06/19 13:43:50;;;;;;;1.50;1.40;;;;;;;33.89;35.11;99695.50;6169262;23;20020;-89